Cleveland, Ohio
Traffic Map
Current Weather Conditions
Cleveland, Ohio
Overcast
Overcast
34°
Feels Like: 24°
Wind Chill: 24° Ceiling: 2800
Heat Index: 34° Visibility: 10mi
Dew Point: 30° Wind: 15mph
Humidity: 87% Direction: 250° (WSW)
Pressure: 29.55in Gusts: 0mph
Raw Report DataKBKL 090749Z 25013KT 10SM SCT012 OVC028 01/M01 A2955 RMK AO2
Traffic Incident Summary
Active as of:
Severity:
Category:
InformationThere was an issue retrieving the traffic information for this location. Please try a different location or try again shortly.
Advertisements
Track Severe Weather on mobile